sensor_id;sensor_type;location;lat;lon;timestamp;P1;durP1;ratioP1;P2;durP2;ratioP2
77099;SDS011;66602;48.922;2.414;2023-04-16T00:02:11;9.32;;;3.88;;
77099;SDS011;66602;48.922;2.414;2023-04-16T00:04:37;3.83;;;3.58;;
77099;SDS011;66602;48.922;2.414;2023-04-16T00:07:02;7.43;;;3.30;;
77099;SDS011;66602;48.922;2.414;2023-04-16T00:09:28;4.43;;;3.20;;
77099;SDS011;66602;48.922;2.414;2023-04-16T00:11:54;4.15;;;3.20;;
77099;SDS011;66602;48.922;2.414;2023-04-16T00:14:20;3.90;;;3.50;;
77099;SDS011;66602;48.922;2.414;2023-04-16T00:16:45;5.25;;;3.58;;
77099;SDS011;66602;48.922;2.414;2023-04-16T00:19:11;4.13;;;3.60;;
77099;SDS011;66602;48.922;2.414;2023-04-16T00:21:36;3.80;;;3.50;;
77099;SDS011;66602;48.922;2.414;2023-04-16T00:24:02;5.47;;;3.42;;
77099;SDS011;66602;48.922;2.414;2023-04-16T00:26:27;7.03;;;4.18;;
77099;SDS011;66602;48.922;2.414;2023-04-16T00:28:53;3.97;;;3.50;;
77099;SDS011;66602;48.922;2.414;2023-04-16T00:31:25;6.63;;;3.88;;
77099;SDS011;66602;48.922;2.414;2023-04-16T00:33:53;4.82;;;4.35;;
77099;SDS011;66602;48.922;2.414;2023-04-16T00:36:20;4.60;;;4.18;;
77099;SDS011;66602;48.922;2.414;2023-04-16T00:38:47;4.28;;;3.88;;
77099;SDS011;66602;48.922;2.414;2023-04-16T00:41:12;6.55;;;3.95;;
77099;SDS011;66602;48.922;2.414;2023-04-16T00:43:38;4.40;;;3.85;;
77099;SDS011;66602;48.922;2.414;2023-04-16T00:46:03;8.73;;;4.15;;
77099;SDS011;66602;48.922;2.414;2023-04-16T00:48:31;4.82;;;4.40;;
77099;SDS011;66602;48.922;2.414;2023-04-16T00:50:57;3.65;;;3.42;;
77099;SDS011;66602;48.922;2.414;2023-04-16T00:53:25;4.47;;;4.03;;
77099;SDS011;66602;48.922;2.414;2023-04-16T00:55:50;10.85;;;5.07;;
77099;SDS011;66602;48.922;2.414;2023-04-16T00:58:16;10.02;;;4.57;;
77099;SDS011;66602;48.922;2.414;2023-04-16T01:00:42;5.63;;;4.18;;
77099;SDS011;66602;48.922;2.414;2023-04-16T01:03:08;4.80;;;4.50;;
77099;SDS011;66602;48.922;2.414;2023-04-16T01:05:34;8.80;;;4.50;;
77099;SDS011;66602;48.922;2.414;2023-04-16T01:08:01;4.35;;;4.05;;
77099;SDS011;66602;48.922;2.414;2023-04-16T01:10:26;5.57;;;4.35;;
77099;SDS011;66602;48.922;2.414;2023-04-16T01:12:52;5.55;;;4.60;;
77099;SDS011;66602;48.922;2.414;2023-04-16T01:15:17;5.57;;;4.13;;
77099;SDS011;66602;48.922;2.414;2023-04-16T01:17:44;7.47;;;5.57;;
77099;SDS011;66602;48.922;2.414;2023-04-16T01:20:10;5.57;;;4.78;;
77099;SDS011;66602;48.922;2.414;2023-04-16T01:22:35;5.63;;;4.88;;
77099;SDS011;66602;48.922;2.414;2023-04-16T01:25:01;3.95;;;3.65;;
77099;SDS011;66602;48.922;2.414;2023-04-16T01:27:26;5.03;;;4.18;;
77099;SDS011;66602;48.922;2.414;2023-04-16T01:29:52;4.95;;;4.45;;
77099;SDS011;66602;48.922;2.414;2023-04-16T01:32:17;10.85;;;5.05;;
77099;SDS011;66602;48.922;2.414;2023-04-16T01:34:43;13.05;;;4.90;;
77099;SDS011;66602;48.922;2.414;2023-04-16T01:37:08;4.82;;;4.45;;
77099;SDS011;66602;48.922;2.414;2023-04-16T01:39:35;8.50;;;4.60;;
77099;SDS011;66602;48.922;2.414;2023-04-16T01:42:00;5.07;;;4.68;;
77099;SDS011;66602;48.922;2.414;2023-04-16T01:44:26;7.85;;;5.10;;
77099;SDS011;66602;48.922;2.414;2023-04-16T01:46:52;5.43;;;4.65;;
77099;SDS011;66602;48.922;2.414;2023-04-16T01:49:17;7.13;;;4.80;;
77099;SDS011;66602;48.922;2.414;2023-04-16T01:51:43;7.03;;;4.60;;
77099;SDS011;66602;48.922;2.414;2023-04-16T01:54:08;5.13;;;4.80;;
77099;SDS011;66602;48.922;2.414;2023-04-16T01:56:34;5.82;;;5.32;;
77099;SDS011;66602;48.922;2.414;2023-04-16T01:58:59;6.03;;;5.00;;
77099;SDS011;66602;48.922;2.414;2023-04-16T02:01:24;7.68;;;5.40;;
77099;SDS011;66602;48.922;2.414;2023-04-16T02:03:50;5.82;;;5.35;;
77099;SDS011;66602;48.922;2.414;2023-04-16T02:06:16;6.97;;;5.55;;
77099;SDS011;66602;48.922;2.414;2023-04-16T02:08:42;6.70;;;5.95;;
77099;SDS011;66602;48.922;2.414;2023-04-16T02:11:07;6.65;;;6.18;;
77099;SDS011;66602;48.922;2.414;2023-04-16T02:13:33;11.15;;;6.22;;
77099;SDS011;66602;48.922;2.414;2023-04-16T02:15:58;6.38;;;5.90;;
77099;SDS011;66602;48.922;2.414;2023-04-16T02:18:24;9.43;;;6.28;;
77099;SDS011;66602;48.922;2.414;2023-04-16T02:20:50;5.72;;;5.32;;
77099;SDS011;66602;48.922;2.414;2023-04-16T02:23:15;7.13;;;6.22;;
77099;SDS011;66602;48.922;2.414;2023-04-16T02:25:41;8.60;;;5.88;;
77099;SDS011;66602;48.922;2.414;2023-04-16T02:28:08;10.98;;;6.05;;
77099;SDS011;66602;48.922;2.414;2023-04-16T02:30:35;10.18;;;5.05;;
77099;SDS011;66602;48.922;2.414;2023-04-16T02:33:02;4.70;;;4.35;;
77099;SDS011;66602;48.922;2.414;2023-04-16T02:35:30;8.05;;;5.50;;
77099;SDS011;66602;48.922;2.414;2023-04-16T02:37:59;10.20;;;5.93;;
77099;SDS011;66602;48.922;2.414;2023-04-16T02:40:25;5.53;;;4.68;;
77099;SDS011;66602;48.922;2.414;2023-04-16T02:42:51;12.93;;;5.95;;
77099;SDS011;66602;48.922;2.414;2023-04-16T02:45:17;5.78;;;5.28;;
77099;SDS011;66602;48.922;2.414;2023-04-16T02:47:43;7.28;;;6.28;;
77099;SDS011;66602;48.922;2.414;2023-04-16T02:50:08;6.43;;;5.43;;
77099;SDS011;66602;48.922;2.414;2023-04-16T02:52:34;5.80;;;5.35;;
77099;SDS011;66602;48.922;2.414;2023-04-16T02:55:00;5.78;;;5.03;;
77099;SDS011;66602;48.922;2.414;2023-04-16T02:57:25;13.48;;;5.35;;
77099;SDS011;66602;48.922;2.414;2023-04-16T02:59:51;7.63;;;5.55;;
77099;SDS011;66602;48.922;2.414;2023-04-16T03:02:16;10.73;;;5.40;;
77099;SDS011;66602;48.922;2.414;2023-04-16T03:04:42;12.57;;;5.65;;
77099;SDS011;66602;48.922;2.414;2023-04-16T03:07:07;6.28;;;5.65;;
77099;SDS011;66602;48.922;2.414;2023-04-16T03:09:36;16.63;;;5.65;;
77099;SDS011;66602;48.922;2.414;2023-04-16T03:12:01;7.07;;;5.50;;
77099;SDS011;66602;48.922;2.414;2023-04-16T03:14:27;6.13;;;5.07;;
77099;SDS011;66602;48.922;2.414;2023-04-16T03:16:52;6.55;;;5.35;;
77099;SDS011;66602;48.922;2.414;2023-04-16T03:19:18;6.15;;;5.65;;
77099;SDS011;66602;48.922;2.414;2023-04-16T03:21:43;6.38;;;5.78;;
77099;SDS011;66602;48.922;2.414;2023-04-16T03:24:09;6.30;;;5.78;;
77099;SDS011;66602;48.922;2.414;2023-04-16T03:26:34;6.40;;;5.90;;
77099;SDS011;66602;48.922;2.414;2023-04-16T03:29:00;8.65;;;6.68;;
77099;SDS011;66602;48.922;2.414;2023-04-16T03:31:28;6.18;;;5.85;;
77099;SDS011;66602;48.922;2.414;2023-04-16T03:33:54;6.93;;;6.32;;
77099;SDS011;66602;48.922;2.414;2023-04-16T03:36:20;12.63;;;7.15;;
77099;SDS011;66602;48.922;2.414;2023-04-16T03:38:47;11.85;;;6.45;;
77099;SDS011;66602;48.922;2.414;2023-04-16T03:41:12;11.32;;;6.63;;
77099;SDS011;66602;48.922;2.414;2023-04-16T03:43:38;12.68;;;7.10;;
77099;SDS011;66602;48.922;2.414;2023-04-16T03:46:03;9.73;;;6.97;;
77099;SDS011;66602;48.922;2.414;2023-04-16T03:48:29;8.18;;;7.47;;
77099;SDS011;66602;48.922;2.414;2023-04-16T03:50:54;10.95;;;6.97;;
77099;SDS011;66602;48.922;2.414;2023-04-16T03:53:20;11.77;;;7.85;;
77099;SDS011;66602;48.922;2.414;2023-04-16T03:55:48;14.57;;;7.70;;
77099;SDS011;66602;48.922;2.414;2023-04-16T03:58:15;17.75;;;8.30;;
77099;SDS011;66602;48.922;2.414;2023-04-16T04:00:41;12.80;;;7.82;;
77099;SDS011;66602;48.922;2.414;2023-04-16T04:03:07;9.00;;;7.55;;
77099;SDS011;66602;48.922;2.414;2023-04-16T04:05:36;12.02;;;8.27;;
77099;SDS011;66602;48.922;2.414;2023-04-16T04:08:03;7.35;;;6.70;;
77099;SDS011;66602;48.922;2.414;2023-04-16T04:10:30;10.57;;;7.68;;
77099;SDS011;66602;48.922;2.414;2023-04-16T04:13:00;8.32;;;7.63;;
77099;SDS011;66602;48.922;2.414;2023-04-16T04:15:26;17.60;;;7.05;;
77099;SDS011;66602;48.922;2.414;2023-04-16T04:17:52;8.98;;;6.97;;
77099;SDS011;66602;48.922;2.414;2023-04-16T04:20:17;7.15;;;6.43;;
77099;SDS011;66602;48.922;2.414;2023-04-16T04:22:43;8.88;;;6.78;;
77099;SDS011;66602;48.922;2.414;2023-04-16T04:25:11;9.25;;;7.45;;
77099;SDS011;66602;48.922;2.414;2023-04-16T04:27:37;8.50;;;7.90;;
77099;SDS011;66602;48.922;2.414;2023-04-16T04:30:03;9.65;;;8.18;;
77099;SDS011;66602;48.922;2.414;2023-04-16T04:32:30;14.38;;;9.60;;
77099;SDS011;66602;48.922;2.414;2023-04-16T04:34:56;16.38;;;10.98;;
77099;SDS011;66602;48.922;2.414;2023-04-16T04:37:22;17.45;;;12.85;;
77099;SDS011;66602;48.922;2.414;2023-04-16T04:39:48;18.08;;;12.23;;
77099;SDS011;66602;48.922;2.414;2023-04-16T04:42:15;21.77;;;13.10;;
77099;SDS011;66602;48.922;2.414;2023-04-16T04:44:42;30.23;;;14.13;;
77099;SDS011;66602;48.922;2.414;2023-04-16T04:47:07;26.77;;;13.02;;
77099;SDS011;66602;48.922;2.414;2023-04-16T04:49:32;24.10;;;14.90;;
77099;SDS011;66602;48.922;2.414;2023-04-16T04:51:58;22.08;;;13.90;;
77099;SDS011;66602;48.922;2.414;2023-04-16T04:54:23;25.80;;;14.98;;
77099;SDS011;66602;48.922;2.414;2023-04-16T04:56:49;29.38;;;14.48;;
77099;SDS011;66602;48.922;2.414;2023-04-16T04:59:16;27.42;;;14.77;;
77099;SDS011;66602;48.922;2.414;2023-04-16T05:01:42;26.17;;;15.30;;
77099;SDS011;66602;48.922;2.414;2023-04-16T05:04:07;34.55;;;15.20;;
77099;SDS011;66602;48.922;2.414;2023-04-16T05:06:33;23.60;;;15.88;;
77099;SDS011;66602;48.922;2.414;2023-04-16T05:08:58;29.52;;;15.68;;
77099;SDS011;66602;48.922;2.414;2023-04-16T05:11:23;39.47;;;17.80;;
77099;SDS011;66602;48.922;2.414;2023-04-16T05:13:49;26.45;;;16.42;;
77099;SDS011;66602;48.922;2.414;2023-04-16T05:16:14;23.25;;;15.50;;
77099;SDS011;66602;48.922;2.414;2023-04-16T05:18:40;26.08;;;15.68;;
77099;SDS011;66602;48.922;2.414;2023-04-16T05:21:05;25.83;;;16.05;;
77099;SDS011;66602;48.922;2.414;2023-04-16T05:23:31;27.17;;;16.05;;
77099;SDS011;66602;48.922;2.414;2023-04-16T05:25:56;25.38;;;15.77;;
77099;SDS011;66602;48.922;2.414;2023-04-16T05:28:22;29.85;;;17.23;;
77099;SDS011;66602;48.922;2.414;2023-04-16T05:30:47;41.60;;;17.73;;
77099;SDS011;66602;48.922;2.414;2023-04-16T05:33:13;28.15;;;16.10;;
77099;SDS011;66602;48.922;2.414;2023-04-16T05:35:38;32.38;;;17.20;;
77099;SDS011;66602;48.922;2.414;2023-04-16T05:38:04;33.05;;;17.38;;
77099;SDS011;66602;48.922;2.414;2023-04-16T05:40:30;33.47;;;17.83;;
77099;SDS011;66602;48.922;2.414;2023-04-16T05:42:56;33.10;;;17.48;;
77099;SDS011;66602;48.922;2.414;2023-04-16T05:45:21;30.00;;;16.27;;
77099;SDS011;66602;48.922;2.414;2023-04-16T05:47:47;31.17;;;17.80;;
77099;SDS011;66602;48.922;2.414;2023-04-16T05:50:12;32.42;;;17.38;;
77099;SDS011;66602;48.922;2.414;2023-04-16T05:52:37;32.13;;;17.38;;
77099;SDS011;66602;48.922;2.414;2023-04-16T05:55:03;35.72;;;18.17;;
77099;SDS011;66602;48.922;2.414;2023-04-16T05:57:29;30.92;;;17.92;;
77099;SDS011;66602;48.922;2.414;2023-04-16T05:59:55;39.65;;;18.13;;
77099;SDS011;66602;48.922;2.414;2023-04-16T06:02:20;34.72;;;17.30;;
77099;SDS011;66602;48.922;2.414;2023-04-16T06:04:46;42.15;;;17.98;;
77099;SDS011;66602;48.922;2.414;2023-04-16T06:07:11;31.50;;;19.27;;
77099;SDS011;66602;48.922;2.414;2023-04-16T06:09:37;30.75;;;18.55;;
77099;SDS011;66602;48.922;2.414;2023-04-16T06:12:03;30.98;;;19.00;;
77099;SDS011;66602;48.922;2.414;2023-04-16T06:14:29;32.90;;;17.35;;
77099;SDS011;66602;48.922;2.414;2023-04-16T06:16:56;35.10;;;18.52;;
77099;SDS011;66602;48.922;2.414;2023-04-16T06:19:26;28.60;;;17.20;;
77099;SDS011;66602;48.922;2.414;2023-04-16T06:21:53;27.27;;;15.55;;
77099;SDS011;66602;48.922;2.414;2023-04-16T06:24:21;30.58;;;18.17;;
77099;SDS011;66602;48.922;2.414;2023-04-16T06:26:47;21.20;;;15.93;;
77099;SDS011;66602;48.922;2.414;2023-04-16T06:29:12;23.95;;;15.93;;
77099;SDS011;66602;48.922;2.414;2023-04-16T06:31:38;29.70;;;16.35;;
77099;SDS011;66602;48.922;2.414;2023-04-16T06:34:03;23.80;;;15.55;;
77099;SDS011;66602;48.922;2.414;2023-04-16T06:36:29;29.88;;;16.73;;
77099;SDS011;66602;48.922;2.414;2023-04-16T06:38:55;31.25;;;17.42;;
77099;SDS011;66602;48.922;2.414;2023-04-16T06:41:20;22.48;;;15.73;;
77099;SDS011;66602;48.922;2.414;2023-04-16T06:43:46;25.73;;;15.38;;
77099;SDS011;66602;48.922;2.414;2023-04-16T06:46:12;24.48;;;14.85;;
77099;SDS011;66602;48.922;2.414;2023-04-16T06:48:37;27.02;;;15.85;;
77099;SDS011;66602;48.922;2.414;2023-04-16T06:51:03;24.05;;;14.77;;
77099;SDS011;66602;48.922;2.414;2023-04-16T06:53:28;22.77;;;15.40;;
77099;SDS011;66602;48.922;2.414;2023-04-16T06:55:54;27.60;;;14.48;;
77099;SDS011;66602;48.922;2.414;2023-04-16T06:58:20;23.70;;;14.32;;
77099;SDS011;66602;48.922;2.414;2023-04-16T07:00:46;19.80;;;13.60;;
77099;SDS011;66602;48.922;2.414;2023-04-16T07:03:11;16.95;;;13.88;;
77099;SDS011;66602;48.922;2.414;2023-04-16T07:05:37;20.60;;;14.02;;
77099;SDS011;66602;48.922;2.414;2023-04-16T07:08:02;16.90;;;13.98;;
77099;SDS011;66602;48.922;2.414;2023-04-16T07:10:28;17.23;;;12.77;;
77099;SDS011;66602;48.922;2.414;2023-04-16T07:12:53;14.30;;;11.57;;
77099;SDS011;66602;48.922;2.414;2023-04-16T07:15:19;16.33;;;11.50;;
77099;SDS011;66602;48.922;2.414;2023-04-16T07:17:44;17.50;;;11.52;;
77099;SDS011;66602;48.922;2.414;2023-04-16T07:20:10;14.48;;;11.65;;
77099;SDS011;66602;48.922;2.414;2023-04-16T07:22:35;13.02;;;11.70;;
77099;SDS011;66602;48.922;2.414;2023-04-16T07:25:01;13.70;;;11.93;;
77099;SDS011;66602;48.922;2.414;2023-04-16T07:27:27;15.98;;;11.90;;
77099;SDS011;66602;48.922;2.414;2023-04-16T07:29:52;20.15;;;12.15;;
77099;SDS011;66602;48.922;2.414;2023-04-16T07:32:18;15.27;;;11.63;;
77099;SDS011;66602;48.922;2.414;2023-04-16T07:34:46;17.42;;;11.50;;
77099;SDS011;66602;48.922;2.414;2023-04-16T07:37:11;15.15;;;11.38;;
77099;SDS011;66602;48.922;2.414;2023-04-16T07:39:37;14.00;;;10.57;;
77099;SDS011;66602;48.922;2.414;2023-04-16T07:42:02;16.00;;;11.52;;
77099;SDS011;66602;48.922;2.414;2023-04-16T07:44:28;19.60;;;11.77;;
77099;SDS011;66602;48.922;2.414;2023-04-16T07:46:53;14.40;;;11.40;;
77099;SDS011;66602;48.922;2.414;2023-04-16T07:49:19;18.85;;;11.15;;
77099;SDS011;66602;48.922;2.414;2023-04-16T07:51:45;14.00;;;10.77;;
77099;SDS011;66602;48.922;2.414;2023-04-16T07:54:11;13.10;;;9.75;;
77099;SDS011;66602;48.922;2.414;2023-04-16T07:56:36;10.15;;;9.15;;
77099;SDS011;66602;48.922;2.414;2023-04-16T07:59:02;11.13;;;9.43;;
77099;SDS011;66602;48.922;2.414;2023-04-16T08:01:28;12.23;;;9.70;;
77099;SDS011;66602;48.922;2.414;2023-04-16T08:03:53;12.27;;;9.63;;
77099;SDS011;66602;48.922;2.414;2023-04-16T08:06:19;12.63;;;9.90;;
77099;SDS011;66602;48.922;2.414;2023-04-16T08:08:45;9.52;;;8.65;;
77099;SDS011;66602;48.922;2.414;2023-04-16T08:11:10;17.25;;;9.63;;
77099;SDS011;66602;48.922;2.414;2023-04-16T08:13:36;10.70;;;8.75;;
77099;SDS011;66602;48.922;2.414;2023-04-16T08:16:02;16.52;;;9.00;;
77099;SDS011;66602;48.922;2.414;2023-04-16T08:18:27;9.68;;;8.05;;
77099;SDS011;66602;48.922;2.414;2023-04-16T08:20:53;15.32;;;8.57;;
77099;SDS011;66602;48.922;2.414;2023-04-16T08:23:19;9.32;;;8.52;;
77099;SDS011;66602;48.922;2.414;2023-04-16T08:25:46;8.82;;;7.53;;
77099;SDS011;66602;48.922;2.414;2023-04-16T08:28:12;8.90;;;7.55;;
77099;SDS011;66602;48.922;2.414;2023-04-16T08:30:37;10.95;;;7.63;;
77099;SDS011;66602;48.922;2.414;2023-04-16T08:33:03;8.57;;;7.25;;
77099;SDS011;66602;48.922;2.414;2023-04-16T08:35:29;9.38;;;7.85;;
77099;SDS011;66602;48.922;2.414;2023-04-16T08:37:54;11.65;;;8.48;;
77099;SDS011;66602;48.922;2.414;2023-04-16T08:40:22;9.75;;;8.75;;
77099;SDS011;66602;48.922;2.414;2023-04-16T08:42:53;10.75;;;9.27;;
77099;SDS011;66602;48.922;2.414;2023-04-16T08:45:22;13.40;;;9.75;;
77099;SDS011;66602;48.922;2.414;2023-04-16T08:47:50;12.15;;;8.70;;
77099;SDS011;66602;48.922;2.414;2023-04-16T08:50:23;12.90;;;9.80;;
77099;SDS011;66602;48.922;2.414;2023-04-16T08:52:51;9.77;;;8.68;;
77099;SDS011;66602;48.922;2.414;2023-04-16T08:55:21;15.13;;;7.95;;
77099;SDS011;66602;48.922;2.414;2023-04-16T08:57:51;9.23;;;8.07;;
77099;SDS011;66602;48.922;2.414;2023-04-16T09:00:20;10.32;;;8.88;;
77099;SDS011;66602;48.922;2.414;2023-04-16T09:02:46;12.80;;;8.00;;
77099;SDS011;66602;48.922;2.414;2023-04-16T09:05:14;11.70;;;7.72;;
77099;SDS011;66602;48.922;2.414;2023-04-16T09:07:41;10.15;;;7.80;;
77099;SDS011;66602;48.922;2.414;2023-04-16T09:10:09;8.55;;;6.80;;
77099;SDS011;66602;48.922;2.414;2023-04-16T09:12:36;7.70;;;6.60;;
77099;SDS011;66602;48.922;2.414;2023-04-16T09:15:02;9.73;;;8.35;;
77099;SDS011;66602;48.922;2.414;2023-04-16T09:17:30;9.98;;;7.93;;
77099;SDS011;66602;48.922;2.414;2023-04-16T09:19:55;12.10;;;8.52;;
77099;SDS011;66602;48.922;2.414;2023-04-16T09:22:21;10.90;;;8.63;;
77099;SDS011;66602;48.922;2.414;2023-04-16T09:24:46;10.32;;;7.03;;
77099;SDS011;66602;48.922;2.414;2023-04-16T09:27:12;6.13;;;5.55;;
77099;SDS011;66602;48.922;2.414;2023-04-16T09:29:38;6.03;;;5.47;;
77099;SDS011;66602;48.922;2.414;2023-04-16T09:32:05;8.35;;;5.38;;
77099;SDS011;66602;48.922;2.414;2023-04-16T09:34:52;8.98;;;6.68;;
77099;SDS011;66602;48.922;2.414;2023-04-16T09:37:18;8.40;;;5.70;;
77099;SDS011;66602;48.922;2.414;2023-04-16T09:39:43;8.10;;;6.15;;
77099;SDS011;66602;48.922;2.414;2023-04-16T09:42:20;8.05;;;5.93;;
77099;SDS011;66602;48.922;2.414;2023-04-16T09:44:48;6.45;;;5.75;;
77099;SDS011;66602;48.922;2.414;2023-04-16T09:47:14;9.40;;;6.50;;
77099;SDS011;66602;48.922;2.414;2023-04-16T09:49:40;10.52;;;8.75;;
77099;SDS011;66602;48.922;2.414;2023-04-16T09:52:16;10.75;;;7.72;;
77099;SDS011;66602;48.922;2.414;2023-04-16T09:54:50;6.97;;;6.38;;
77099;SDS011;66602;48.922;2.414;2023-04-16T09:57:18;15.43;;;11.50;;
77099;SDS011;66602;48.922;2.414;2023-04-16T09:59:51;5.80;;;5.30;;
77099;SDS011;66602;48.922;2.414;2023-04-16T10:02:45;6.57;;;5.00;;
77099;SDS011;66602;48.922;2.414;2023-04-16T10:05:12;9.10;;;6.55;;
77099;SDS011;66602;48.922;2.414;2023-04-16T10:07:40;7.82;;;5.47;;
77099;SDS011;66602;48.922;2.414;2023-04-16T10:10:06;13.35;;;10.38;;
77099;SDS011;66602;48.922;2.414;2023-04-16T10:12:32;7.30;;;4.88;;
77099;SDS011;66602;48.922;2.414;2023-04-16T10:14:58;4.78;;;4.35;;
77099;SDS011;66602;48.922;2.414;2023-04-16T10:17:23;35.95;;;19.83;;
77099;SDS011;66602;48.922;2.414;2023-04-16T10:19:50;13.93;;;11.20;;
77099;SDS011;66602;48.922;2.414;2023-04-16T10:22:16;8.13;;;6.43;;
77099;SDS011;66602;48.922;2.414;2023-04-16T10:24:41;5.85;;;5.43;;
77099;SDS011;66602;48.922;2.414;2023-04-16T10:27:08;16.60;;;12.02;;
77099;SDS011;66602;48.922;2.414;2023-04-16T10:29:33;9.90;;;7.05;;
77099;SDS011;66602;48.922;2.414;2023-04-16T10:32:00;5.85;;;5.45;;
77099;SDS011;66602;48.922;2.414;2023-04-16T10:34:27;3.88;;;3.67;;
77099;SDS011;66602;48.922;2.414;2023-04-16T10:36:53;5.75;;;2.80;;
77099;SDS011;66602;48.922;2.414;2023-04-16T10:39:23;4.47;;;3.60;;
77099;SDS011;66602;48.922;2.414;2023-04-16T10:42:05;4.75;;;3.40;;
77099;SDS011;66602;48.922;2.414;2023-04-16T10:44:34;6.35;;;2.92;;
77099;SDS011;66602;48.922;2.414;2023-04-16T10:47:00;3.25;;;3.05;;
77099;SDS011;66602;48.922;2.414;2023-04-16T10:49:26;4.43;;;3.65;;
77099;SDS011;66602;48.922;2.414;2023-04-16T10:56:43;2.90;;;2.60;;
77099;SDS011;66602;48.922;2.414;2023-04-16T10:59:11;3.75;;;3.13;;
77099;SDS011;66602;48.922;2.414;2023-04-16T11:01:40;3.78;;;2.63;;
77099;SDS011;66602;48.922;2.414;2023-04-16T11:14:50;4.28;;;3.10;;
77099;SDS011;66602;48.922;2.414;2023-04-16T11:17:18;3.40;;;3.10;;
77099;SDS011;66602;48.922;2.414;2023-04-16T11:19:44;2.85;;;2.58;;
77099;SDS011;66602;48.922;2.414;2023-04-16T11:22:11;2.60;;;2.40;;
77099;SDS011;66602;48.922;2.414;2023-04-16T11:24:39;4.03;;;3.70;;
77099;SDS011;66602;48.922;2.414;2023-04-16T11:27:05;3.53;;;2.80;;
77099;SDS011;66602;48.922;2.414;2023-04-16T11:29:31;2.40;;;2.20;;
77099;SDS011;66602;48.922;2.414;2023-04-16T11:31:57;2.28;;;2.10;;
77099;SDS011;66602;48.922;2.414;2023-04-16T11:34:23;3.65;;;2.60;;
77099;SDS011;66602;48.922;2.414;2023-04-16T11:36:50;2.58;;;2.25;;
77099;SDS011;66602;48.922;2.414;2023-04-16T11:39:16;2.95;;;2.65;;
77099;SDS011;66602;48.922;2.414;2023-04-16T11:41:43;2.75;;;2.55;;
77099;SDS011;66602;48.922;2.414;2023-04-16T11:44:19;2.30;;;2.20;;
77099;SDS011;66602;48.922;2.414;2023-04-16T11:46:46;2.67;;;2.20;;
77099;SDS011;66602;48.922;2.414;2023-04-16T11:49:12;2.95;;;2.75;;
77099;SDS011;66602;48.922;2.414;2023-04-16T11:51:41;3.75;;;3.45;;
77099;SDS011;66602;48.922;2.414;2023-04-16T11:54:08;4.03;;;2.88;;
77099;SDS011;66602;48.922;2.414;2023-04-16T11:56:35;3.03;;;2.78;;
77099;SDS011;66602;48.922;2.414;2023-04-16T11:59:10;3.58;;;3.28;;
77099;SDS011;66602;48.922;2.414;2023-04-16T12:01:37;4.15;;;3.83;;
77099;SDS011;66602;48.922;2.414;2023-04-16T12:04:04;3.83;;;3.22;;
77099;SDS011;66602;48.922;2.414;2023-04-16T12:06:30;3.38;;;2.33;;
77099;SDS011;66602;48.922;2.414;2023-04-16T12:08:57;2.83;;;2.70;;
77099;SDS011;66602;48.922;2.414;2023-04-16T12:11:56;3.15;;;2.78;;
77099;SDS011;66602;48.922;2.414;2023-04-16T12:14:15;3.97;;;2.58;;
77099;SDS011;66602;48.922;2.414;2023-04-16T12:16:40;3.28;;;2.97;;
77099;SDS011;66602;48.922;2.414;2023-04-16T12:19:06;2.58;;;2.33;;
77099;SDS011;66602;48.922;2.414;2023-04-16T12:21:39;2.92;;;2.72;;
77099;SDS011;66602;48.922;2.414;2023-04-16T12:24:10;3.13;;;2.92;;
77099;SDS011;66602;48.922;2.414;2023-04-16T12:26:43;3.08;;;2.72;;
77099;SDS011;66602;48.922;2.414;2023-04-16T12:29:20;5.20;;;2.85;;
77099;SDS011;66602;48.922;2.414;2023-04-16T12:31:48;2.67;;;2.47;;
77099;SDS011;66602;48.922;2.414;2023-04-16T12:34:15;2.88;;;2.50;;
77099;SDS011;66602;48.922;2.414;2023-04-16T12:36:41;3.45;;;2.55;;
77099;SDS011;66602;48.922;2.414;2023-04-16T12:39:08;4.40;;;3.22;;
77099;SDS011;66602;48.922;2.414;2023-04-16T12:41:38;3.28;;;2.47;;
77099;SDS011;66602;48.922;2.414;2023-04-16T12:44:10;2.58;;;2.47;;
77099;SDS011;66602;48.922;2.414;2023-04-16T12:46:37;3.85;;;2.47;;
77099;SDS011;66602;48.922;2.414;2023-04-16T12:49:04;2.60;;;2.45;;
77099;SDS011;66602;48.922;2.414;2023-04-16T12:51:30;3.50;;;2.70;;
77099;SDS011;66602;48.922;2.414;2023-04-16T12:53:56;2.67;;;2.42;;
77099;SDS011;66602;48.922;2.414;2023-04-16T12:56:21;2.58;;;2.45;;
77099;SDS011;66602;48.922;2.414;2023-04-16T12:58:47;5.30;;;2.67;;
77099;SDS011;66602;48.922;2.414;2023-04-16T13:01:16;2.45;;;2.17;;
77099;SDS011;66602;48.922;2.414;2023-04-16T13:03:43;2.35;;;2.20;;
77099;SDS011;66602;48.922;2.414;2023-04-16T13:06:09;3.92;;;2.10;;
77099;SDS011;66602;48.922;2.414;2023-04-16T13:08:36;3.10;;;2.80;;
77099;SDS011;66602;48.922;2.414;2023-04-16T13:11:02;3.65;;;2.53;;
77099;SDS011;66602;48.922;2.414;2023-04-16T13:13:28;2.20;;;2.00;;
77099;SDS011;66602;48.922;2.414;2023-04-16T13:15:53;3.75;;;2.42;;
77099;SDS011;66602;48.922;2.414;2023-04-16T13:18:19;4.20;;;2.58;;
77099;SDS011;66602;48.922;2.414;2023-04-16T13:20:45;2.35;;;2.15;;
77099;SDS011;66602;48.922;2.414;2023-04-16T13:23:10;3.30;;;2.08;;
77099;SDS011;66602;48.922;2.414;2023-04-16T13:25:36;2.17;;;1.98;;
77099;SDS011;66602;48.922;2.414;2023-04-16T13:28:01;2.25;;;2.05;;
77099;SDS011;66602;48.922;2.414;2023-04-16T13:30:27;2.65;;;2.15;;
77099;SDS011;66602;48.922;2.414;2023-04-16T13:32:57;3.22;;;2.22;;
77099;SDS011;66602;48.922;2.414;2023-04-16T13:35:23;2.65;;;2.00;;
77099;SDS011;66602;48.922;2.414;2023-04-16T13:37:48;2.75;;;2.20;;
77099;SDS011;66602;48.922;2.414;2023-04-16T13:40:14;2.70;;;2.25;;
77099;SDS011;66602;48.922;2.414;2023-04-16T13:42:40;3.08;;;2.10;;
77099;SDS011;66602;48.922;2.414;2023-04-16T13:45:05;3.55;;;2.20;;
77099;SDS011;66602;48.922;2.414;2023-04-16T13:47:33;3.05;;;2.30;;
77099;SDS011;66602;48.922;2.414;2023-04-16T13:49:59;2.78;;;2.50;;
77099;SDS011;66602;48.922;2.414;2023-04-16T13:52:25;4.93;;;2.03;;
77099;SDS011;66602;48.922;2.414;2023-04-16T13:54:50;2.40;;;2.30;;
77099;SDS011;66602;48.922;2.414;2023-04-16T13:57:16;4.18;;;2.10;;
77099;SDS011;66602;48.922;2.414;2023-04-16T13:59:42;3.35;;;2.60;;
77099;SDS011;66602;48.922;2.414;2023-04-16T14:02:08;2.70;;;1.92;;
77099;SDS011;66602;48.922;2.414;2023-04-16T14:04:35;2.85;;;2.08;;
77099;SDS011;66602;48.922;2.414;2023-04-16T14:07:00;3.17;;;2.03;;
77099;SDS011;66602;48.922;2.414;2023-04-16T14:09:26;2.85;;;2.65;;
77099;SDS011;66602;48.922;2.414;2023-04-16T14:11:52;3.55;;;2.42;;
77099;SDS011;66602;48.922;2.414;2023-04-16T14:14:17;4.07;;;2.40;;
77099;SDS011;66602;48.922;2.414;2023-04-16T14:16:43;3.10;;;2.63;;
77099;SDS011;66602;48.922;2.414;2023-04-16T14:19:09;4.60;;;2.30;;
77099;SDS011;66602;48.922;2.414;2023-04-16T14:21:34;2.30;;;2.13;;
77099;SDS011;66602;48.922;2.414;2023-04-16T14:24:00;2.22;;;2.05;;
77099;SDS011;66602;48.922;2.414;2023-04-16T14:26:27;3.35;;;2.20;;
77099;SDS011;66602;48.922;2.414;2023-04-16T14:28:52;3.22;;;2.25;;
77099;SDS011;66602;48.922;2.414;2023-04-16T14:31:18;3.65;;;2.30;;
77099;SDS011;66602;48.922;2.414;2023-04-16T14:33:44;2.55;;;2.35;;
77099;SDS011;66602;48.922;2.414;2023-04-16T14:36:10;2.65;;;2.42;;
77099;SDS011;66602;48.922;2.414;2023-04-16T14:38:36;4.47;;;2.50;;
77099;SDS011;66602;48.922;2.414;2023-04-16T14:41:01;3.88;;;1.85;;
77099;SDS011;66602;48.922;2.414;2023-04-16T14:43:27;7.97;;;1.65;;
77099;SDS011;66602;48.922;2.414;2023-04-16T14:45:53;1.75;;;1.55;;
77099;SDS011;66602;48.922;2.414;2023-04-16T14:48:22;2.58;;;1.70;;
77099;SDS011;66602;48.922;2.414;2023-04-16T14:50:48;6.03;;;1.92;;